Time;durP1;ratioP1;P1;durP2;ratioP2;P2;SDS_P1;SDS_P2;PMS_P1;PMS_P2;Temp;Humidity;BMP_temperature;BMP_pressure;BME280_temperature;BME280_humidity;BME280_pressure;Samples;Min_cycle;Max_cycle;Signal;HPM_P1;HPM_P2
2023/05/02 00:00:30;;;;;;;21.50;11.40;;;;;;;10.56;58.87;98502.63;105364;1257;96626;-66
2023/05/02 00:02:59;;;;;;;19.40;11.00;;;;;;;10.50;59.13;98501.64;105202;1258;98113;-67
2023/05/02 00:05:26;;;;;;;21.80;11.70;;;;;;;10.45;59.31;98500.27;105024;1260;111169;-65
2023/05/02 00:07:53;;;;;;;24.60;12.20;;;;;;;10.43;59.30;98496.52;105102;1257;96577;-66
2023/05/02 00:10:20;;;;;;;24.40;11.90;;;;;;;10.47;59.26;98491.64;105146;1255;98227;-66
2023/05/02 00:12:47;;;;;;;24.60;11.50;;;;;;;10.46;59.18;98493.41;105132;1270;96568;-66
2023/05/02 00:15:13;;;;;;;19.60;11.00;;;;;;;10.48;59.01;98490.77;105138;1256;96664;-67
2023/05/02 00:17:41;;;;;;;23.70;12.20;;;;;;;10.47;59.29;98493.98;104968;1260;96647;-66
2023/05/02 00:20:09;;;;;;;22.50;12.20;;;;;;;10.39;60.92;98487.65;105057;1260;96573;-71
2023/05/02 00:22:37;;;;;;;22.40;11.80;;;;;;;10.26;61.19;98488.98;105037;1271;96650;-71
2023/05/02 00:25:05;;;;;;;19.70;11.50;;;;;;;10.19;61.33;98489.79;105157;1254;96583;-70
2023/05/02 00:27:32;;;;;;;24.90;12.60;;;;;;;10.12;61.31;98489.86;105188;1259;96579;-68
2023/05/02 00:29:59;;;;;;;20.10;11.60;;;;;;;10.06;62.18;98490.67;105074;1269;96495;-67
2023/05/02 00:32:27;;;;;;;17.70;10.90;;;;;;;9.93;62.13;98491.59;105134;1268;97865;-66
2023/05/02 00:34:54;;;;;;;19.90;9.70;;;;;;;9.93;62.13;98490.17;105079;1254;96585;-70
2023/05/02 00:37:26;;;;;;;20.00;11.60;;;;;;;9.94;62.21;98490.66;105024;1269;96653;-68
2023/05/02 00:39:53;;;;;;;23.00;11.90;;;;;;;9.90;62.67;98490.58;105187;1258;96579;-69
2023/05/02 00:42:20;;;;;;;20.00;10.70;;;;;;;9.86;62.61;98491.79;105140;1259;111034;-69
2023/05/02 00:44:47;;;;;;;17.60;9.00;;;;;;;9.89;63.10;98491.86;105134;1258;97993;-71
2023/05/02 00:47:14;;;;;;;17.40;8.90;;;;;;;10.00;63.88;98490.27;105075;1260;96657;-71
2023/05/02 00:49:41;;;;;;;20.10;10.30;;;;;;;10.14;64.07;98488.23;105142;1269;96683;-66
2023/05/02 00:52:08;;;;;;;20.70;10.40;;;;;;;10.24;63.76;98484.34;105150;1254;97862;-72
2023/05/02 00:54:40;;;;;;;18.40;9.90;;;;;;;10.32;63.83;98488.56;105076;1259;97170;-69
2023/05/02 00:57:07;;;;;;;17.80;8.70;;;;;;;10.39;63.26;98485.30;105012;1257;99838;-70
2023/05/02 00:59:35;;;;;;;14.00;8.50;;;;;;;10.46;63.96;98487.48;104982;1260;96623;-68
2023/05/02 01:02:34;;;;;;;15.00;8.90;;;;;;;10.51;63.73;98485.66;104998;1259;96610;-69
2023/05/02 01:05:13;;;;;;;16.30;7.80;;;;;;;10.56;63.65;98481.73;105150;1254;97394;-70
2023/05/02 01:07:46;;;;;;;18.80;9.40;;;;;;;10.60;63.73;98481.78;105052;1259;111102;-71
2023/05/02 01:10:38;;;;;;;16.70;9.30;;;;;;;10.63;63.61;98483.02;104736;1263;98585;-71
2023/05/02 01:13:11;;;;;;;16.30;9.00;;;;;;;10.65;63.93;98480.33;104981;1259;108426;-71
2023/05/02 01:15:40;;;;;;;12.60;6.80;;;;;;;10.69;63.57;98478.48;105082;1257;96670;-68
2023/05/02 01:18:10;;;;;;;14.20;8.30;;;;;;;10.72;64.31;98480.45;105127;1254;96590;-70
2023/05/02 01:20:42;;;;;;;10.80;6.20;;;;;;;10.79;64.46;98479.91;105026;1254;110757;-66
2023/05/02 01:23:35;;;;;;;11.50;6.40;;;;;;;10.88;64.89;98475.65;105109;1257;99164;-66
2023/05/02 01:26:15;;;;;;;12.30;7.60;;;;;;;11.01;64.69;98474.27;105103;1260;108597;-68
2023/05/02 01:28:58;;;;;;;11.60;7.00;;;;;;;11.11;64.95;98476.61;105147;1254;96676;-66
2023/05/02 01:31:29;;;;;;;11.20;6.00;;;;;;;11.20;64.47;98476.36;105158;1254;96500;-67
2023/05/02 01:33:59;;;;;;;10.20;5.50;;;;;;;11.28;64.61;98474.28;104884;1259;257019;-67
2023/05/02 01:36:30;;;;;;;10.70;6.10;;;;;;;11.34;64.41;98476.55;105129;1254;98935;-66
2023/05/02 01:38:59;;;;;;;8.30;5.60;;;;;;;11.38;64.09;98477.09;105111;1257;108582;-66
2023/05/02 01:41:29;;;;;;;8.40;5.90;;;;;;;11.45;64.27;98477.48;104858;1262;96649;-69
2023/05/02 01:43:58;;;;;;;12.00;6.50;;;;;;;11.53;64.45;98478.81;105041;1260;96589;-70
2023/05/02 01:46:30;;;;;;;9.60;5.80;;;;;;;11.58;64.20;98477.61;105136;1259;110865;-73
2023/05/02 01:49:00;;;;;;;9.20;5.70;;;;;;;11.63;64.09;98473.64;105112;1259;98998;-66
2023/05/02 01:51:31;;;;;;;8.90;5.00;;;;;;;11.68;64.21;98479.22;104936;1262;107448;-69
2023/05/02 01:54:04;;;;;;;8.50;5.40;;;;;;;11.70;63.97;98474.31;105163;1260;97479;-69
2023/05/02 01:56:35;;;;;;;11.00;5.60;;;;;;;11.72;63.94;98474.70;105200;1258;96731;-69
2023/05/02 01:59:09;;;;;;;9.20;6.10;;;;;;;11.72;63.86;98473.64;105211;1263;110894;-69
2023/05/02 02:01:38;;;;;;;8.20;5.70;;;;;;;11.74;64.00;98475.72;105073;1269;98778;-70
2023/05/02 02:04:08;;;;;;;9.30;6.10;;;;;;;11.73;64.22;98476.33;105225;1269;108795;-69
2023/05/02 02:06:36;;;;;;;12.00;6.70;;;;;;;11.73;63.88;98475.69;105136;1260;97501;-68
2023/05/02 02:09:03;;;;;;;10.50;5.80;;;;;;;11.72;63.90;98476.27;105190;1260;96678;-69
2023/05/02 02:11:56;;;;;;;9.90;5.70;;;;;;;11.71;63.63;98479.77;105186;1260;96562;-67
2023/05/02 02:14:33;;;;;;;10.30;6.30;;;;;;;11.70;63.69;98475.48;105214;1254;99311;-68
2023/05/02 02:17:01;;;;;;;9.20;6.30;;;;;;;11.70;63.38;98475.80;105174;1258;108813;-71
2023/05/02 02:19:30;;;;;;;8.50;5.90;;;;;;;11.71;63.40;98476.05;104996;1267;96609;-68
2023/05/02 02:21:57;;;;;;;8.70;5.20;;;;;;;11.70;63.37;98477.77;105228;1259;96562;-68
2023/05/02 02:24:25;;;;;;;8.10;5.30;;;;;;;11.70;63.23;98474.64;105174;1260;110982;-68
2023/05/02 02:26:52;;;;;;;8.90;5.70;;;;;;;11.70;63.22;98475.89;105181;1259;99149;-67
2023/05/02 02:29:19;;;;;;;10.10;6.10;;;;;;;11.71;62.98;98481.24;105148;1259;96714;-68
2023/05/02 02:31:46;;;;;;;7.50;5.10;;;;;;;11.72;62.75;98479.64;105176;1254;96676;-68
2023/05/02 02:34:13;;;;;;;8.00;4.90;;;;;;;11.72;62.73;98476.27;105100;1260;96522;-66
2023/05/02 02:36:49;;;;;;;7.10;5.00;;;;;;;11.72;62.64;98474.95;105136;1259;97871;-67
2023/05/02 02:39:34;;;;;;;8.10;5.30;;;;;;;11.73;62.66;98473.42;105175;1260;98894;-67
2023/05/02 02:42:02;;;;;;;7.50;4.90;;;;;;;11.73;62.39;98475.46;104973;1263;108573;-67
2023/05/02 02:44:51;;;;;;;6.20;4.40;;;;;;;11.72;62.40;98475.65;104856;1262;97868;-67
2023/05/02 02:47:17;;;;;;;7.30;4.50;;;;;;;11.74;61.97;98475.07;105000;1263;96691;-67
2023/05/02 02:49:48;;;;;;;8.00;3.70;;;;;;;11.76;61.85;98476.14;105076;1260;96662;-66
2023/05/02 02:52:25;;;;;;;5.20;3.70;;;;;;;11.79;61.69;98476.52;105020;1259;99582;-67
2023/05/02 02:54:59;;;;;;;7.10;3.90;;;;;;;11.81;61.36;98473.61;105122;1260;108936;-67
2023/05/02 02:57:40;;;;;;;6.10;3.00;;;;;;;11.81;61.29;98472.52;105194;1260;96704;-67
2023/05/02 03:00:19;;;;;;;8.20;4.10;;;;;;;11.82;61.20;98476.84;104859;1254;97448;-67
2023/05/02 03:02:47;;;;;;;6.60;4.10;;;;;;;11.80;60.96;98480.01;105052;1254;110213;-67
2023/05/02 03:05:15;;;;;;;6.40;4.00;;;;;;;11.80;61.00;98480.93;105095;1269;99145;-68
2023/05/02 03:07:42;;;;;;;7.40;3.70;;;;;;;11.81;60.60;98479.87;105120;1267;108514;-73
2023/05/02 03:10:10;;;;;;;8.40;4.50;;;;;;;11.82;60.51;98479.84;105222;1255;96639;-67
2023/05/02 03:12:38;;;;;;;4.70;3.10;;;;;;;11.83;60.15;98482.29;105223;1258;96609;-69
2023/05/02 03:15:17;;;;;;;6.20;3.80;;;;;;;11.83;59.96;98481.94;105192;1260;110531;-69
2023/05/02 03:17:46;;;;;;;4.40;3.00;;;;;;;11.83;59.41;98482.15;105200;1260;99506;-71
2023/05/02 03:20:17;;;;;;;6.30;2.80;;;;;;;11.84;58.94;98480.16;105141;1259;108505;-70
2023/05/02 03:22:56;;;;;;;5.70;3.10;;;;;;;11.85;58.84;98481.55;104899;1270;96626;-70
2023/05/02 03:25:33;;;;;;;8.00;3.20;;;;;;;11.87;58.49;98486.00;104840;1259;97492;-70
2023/05/02 03:28:03;;;;;;;6.20;2.90;;;;;;;11.86;58.38;98485.58;104778;1263;110307;-72
2023/05/02 03:30:30;;;;;;;3.90;2.70;;;;;;;11.86;58.15;98487.36;105027;1259;96882;-70
2023/05/02 03:32:57;;;;;;;5.70;3.30;;;;;;;11.86;57.77;98490.36;105113;1259;96626;-70
2023/05/02 03:35:24;;;;;;;7.90;3.10;;;;;;;11.87;57.52;98487.58;105046;1260;96632;-67
2023/05/02 03:37:51;;;;;;;4.60;2.50;;;;;;;11.87;57.25;98485.67;105246;1254;96575;-67
2023/05/02 03:40:20;;;;;;;5.20;3.10;;;;;;;11.88;56.88;98483.99;105187;1269;96550;-68
2023/05/02 03:42:47;;;;;;;5.80;2.60;;;;;;;11.87;56.94;98485.31;104894;1263;98955;-67
2023/05/02 03:45:14;;;;;;;4.80;2.50;;;;;;;11.88;56.73;98484.90;105065;1259;96653;-67
2023/05/02 03:47:41;;;;;;;4.50;2.50;;;;;;;11.89;56.36;98484.28;105149;1258;96583;-67
2023/05/02 03:50:09;;;;;;;4.90;2.80;;;;;;;11.91;56.38;98483.44;105161;1260;97515;-67
2023/05/02 03:52:36;;;;;;;4.40;2.50;;;;;;;11.93;56.20;98487.77;105003;1258;97464;-67
2023/05/02 03:55:04;;;;;;;4.00;2.50;;;;;;;11.95;55.92;98485.17;105159;1261;96645;-68
2023/05/02 03:57:31;;;;;;;4.50;2.80;;;;;;;11.96;55.60;98485.85;105126;1260;96688;-67
2023/05/02 03:59:59;;;;;;;9.30;3.90;;;;;;;11.99;55.81;98485.48;105140;1273;97294;-67
2023/05/02 04:02:27;;;;;;;5.90;3.30;;;;;;;11.99;55.55;98484.26;105255;1254;96558;-67
2023/05/02 04:04:54;;;;;;;6.90;3.20;;;;;;;12.02;55.43;98487.73;105203;1254;97061;-67
2023/05/02 04:07:21;;;;;;;6.50;2.90;;;;;;;12.06;55.05;98488.70;105174;1260;97958;-67
2023/05/02 04:09:48;;;;;;;7.30;2.70;;;;;;;12.09;55.00;98494.08;105179;1259;96652;-67
2023/05/02 04:12:15;;;;;;;6.50;3.40;;;;;;;12.12;54.64;98494.04;105093;1260;96593;-67
2023/05/02 04:14:42;;;;;;;6.50;3.30;;;;;;;12.14;54.53;98498.48;105040;1268;96654;-67
2023/05/02 04:17:08;;;;;;;7.20;3.00;;;;;;;12.19;54.59;98498.67;105137;1260;97871;-67
2023/05/02 04:19:36;;;;;;;7.00;3.20;;;;;;;12.23;54.46;98501.66;105132;1268;96583;-66
2023/05/02 04:22:03;;;;;;;5.50;2.80;;;;;;;12.28;54.15;98504.45;105055;1260;96647;-64
2023/05/02 04:24:30;;;;;;;9.20;4.30;;;;;;;12.34;54.09;98504.79;105019;1266;96561;-69
2023/05/02 04:26:57;;;;;;;6.60;3.10;;;;;;;12.41;54.10;98505.76;105045;1260;97892;-67
2023/05/02 04:29:24;;;;;;;8.30;3.80;;;;;;;12.47;53.36;98508.90;105062;1268;97000;-72
2023/05/02 04:31:51;;;;;;;6.20;3.40;;;;;;;12.53;52.95;98509.48;105164;1269;96696;-70
2023/05/02 04:34:18;;;;;;;7.30;3.80;;;;;;;12.61;53.18;98511.73;105172;1254;97506;-69
2023/05/02 04:36:45;;;;;;;4.00;2.70;;;;;;;12.67;52.77;98514.02;105225;1260;96639;-67
2023/05/02 04:39:13;;;;;;;4.80;3.10;;;;;;;12.74;52.92;98514.08;105224;1259;96737;-67
2023/05/02 04:41:40;;;;;;;10.30;5.40;;;;;;;12.84;52.80;98515.38;105214;1255;96555;-69
2023/05/02 04:44:07;;;;;;;10.80;4.80;;;;;;;12.92;52.50;98514.36;105096;1276;96658;-70
2023/05/02 04:46:35;;;;;;;5.50;3.10;;;;;;;13.01;52.32;98514.73;105100;1267;96626;-68
2023/05/02 04:49:02;;;;;;;15.80;6.40;;;;;;;13.12;52.83;98518.02;105234;1267;96573;-70
2023/05/02 04:51:30;;;;;;;4.90;3.50;;;;;;;13.22;52.19;98519.75;105065;1268;97888;-68
2023/05/02 04:53:57;;;;;;;4.20;3.20;;;;;;;13.33;52.24;98525.19;104783;1263;107084;-69
2023/05/02 04:56:24;;;;;;;3.20;2.00;;;;;;;13.44;52.45;98523.05;105031;1259;96679;-68
2023/05/02 04:58:52;;;;;;;3.60;2.10;;;;;;;13.56;53.05;98528.96;105234;1259;96643;-69
2023/05/02 05:01:19;;;;;;;6.40;3.80;;;;;;;13.68;53.03;98529.69;105240;1254;97190;-71
2023/05/02 05:03:47;;;;;;;11.30;5.80;;;;;;;13.78;52.92;98531.93;105144;1260;99463;-66
2023/05/02 05:06:15;;;;;;;7.90;3.70;;;;;;;13.88;52.35;98531.80;104936;1264;108777;-68
2023/05/02 05:08:44;;;;;;;5.90;3.10;;;;;;;13.96;52.07;98533.22;105008;1267;97487;-67
2023/05/02 05:11:11;;;;;;;3.90;2.40;;;;;;;14.03;51.86;98534.96;105197;1258;97483;-68
2023/05/02 05:13:39;;;;;;;5.50;2.80;;;;;;;14.11;52.94;98541.04;105152;1259;110875;-66
2023/05/02 05:16:06;;;;;;;3.30;2.30;;;;;;;14.19;53.98;98543.96;105068;1260;96568;-67
2023/05/02 05:18:40;;;;;;;3.40;2.40;;;;;;;14.24;54.17;98549.27;105057;1260;96708;-68
2023/05/02 05:21:07;;;;;;;3.40;2.10;;;;;;;14.30;54.33;98553.80;105099;1260;97878;-70
2023/05/02 05:23:36;;;;;;;2.80;2.20;;;;;;;14.35;54.68;98558.77;105112;1260;96504;-67
2023/05/02 05:26:16;;;;;;;4.90;2.40;;;;;;;14.41;55.22;98564.48;105012;1264;111145;-69
2023/05/02 05:28:43;;;;;;;4.30;2.60;;;;;;;14.46;55.32;98566.94;104706;1273;97832;-69
2023/05/02 05:31:11;;;;;;;4.50;2.90;;;;;;;14.50;55.28;98569.83;105177;1258;97316;-67
2023/05/02 05:33:42;;;;;;;8.70;2.80;;;;;;;14.62;55.05;98567.48;105155;1267;97472;-69
2023/05/02 05:36:13;;;;;;;5.70;3.00;;;;;;;14.75;54.81;98567.73;105228;1259;97489;-68
2023/05/02 05:38:40;;;;;;;5.60;3.20;;;;;;;14.83;55.06;98567.30;104895;1270;110502;-67
2023/05/02 05:41:07;;;;;;;4.90;3.10;;;;;;;14.93;54.40;98567.38;105152;1260;96562;-66
2023/05/02 05:43:34;;;;;;;6.10;3.30;;;;;;;15.04;53.91;98568.42;105009;1267;97906;-66
2023/05/02 05:46:04;;;;;;;8.70;5.30;;;;;;;15.14;53.27;98567.41;105114;1269;96583;-65
2023/05/02 05:48:31;;;;;;;3.80;2.70;;;;;;;15.22;52.18;98564.70;105147;1262;96575;-71
2023/05/02 05:51:03;;;;;;;4.40;2.70;;;;;;;15.31;52.28;98563.23;105135;1258;96642;-69
2023/05/02 05:53:30;;;;;;;5.10;2.70;;;;;;;15.43;51.61;98561.40;105210;1260;99465;-68
2023/05/02 05:56:11;;;;;;;11.10;4.60;;;;;;;15.53;51.87;98565.08;105065;1259;108739;-67
2023/05/02 05:58:39;;;;;;;5.50;3.60;;;;;;;15.63;51.41;98566.00;105104;1266;97766;-66
2023/05/02 06:01:07;;;;;;;6.80;3.10;;;;;;;15.73;51.64;98561.86;105112;1259;97871;-67
2023/05/02 06:03:34;;;;;;;6.40;3.20;;;;;;;15.81;51.44;98560.50;104826;1263;109454;-67
2023/05/02 06:06:02;;;;;;;10.70;4.00;;;;;;;15.89;51.12;98558.52;105053;1259;99184;-65
2023/05/02 06:08:29;;;;;;;6.40;4.00;;;;;;;15.92;51.02;98558.85;105187;1259;109197;-65
2023/05/02 06:10:57;;;;;;;8.90;4.20;;;;;;;15.97;50.99;98555.17;105179;1257;96661;-65
2023/05/02 06:13:25;;;;;;;6.90;3.50;;;;;;;16.00;50.89;98557.41;105185;1258;97866;-65
2023/05/02 06:15:52;;;;;;;7.40;3.80;;;;;;;16.02;50.32;98558.11;105222;1264;110891;-66
2023/05/02 06:18:19;;;;;;;7.60;3.90;;;;;;;16.01;50.56;98559.88;105032;1267;99427;-65
2023/05/02 06:20:46;;;;;;;5.80;3.20;;;;;;;16.05;50.83;98563.23;104943;1258;96599;-64
2023/05/02 06:23:14;;;;;;;9.40;3.50;;;;;;;16.12;50.41;98564.30;105022;1264;96578;-66
2023/05/02 06:25:41;;;;;;;7.30;3.70;;;;;;;16.19;50.80;98568.58;105218;1260;96683;-66
2023/05/02 06:28:08;;;;;;;5.80;2.80;;;;;;;16.29;50.61;98566.24;105438;1258;96482;-65
2023/05/02 06:30:35;;;;;;;10.00;3.80;;;;;;;16.39;51.57;98567.98;105130;1258;96602;-65
2023/05/02 06:33:05;;;;;;;7.10;3.20;;;;;;;16.53;51.50;98573.94;105087;1268;97506;-65
2023/05/02 06:35:32;;;;;;;6.40;2.90;;;;;;;16.64;50.44;98577.30;104769;1269;97489;-65
2023/05/02 06:37:59;;;;;;;5.00;3.00;;;;;;;16.63;49.88;98578.14;105039;1259;96638;-64
2023/05/02 06:40:26;;;;;;;8.20;3.40;;;;;;;16.63;49.87;98577.22;105088;1268;96555;-65
2023/05/02 06:42:53;;;;;;;7.80;3.30;;;;;;;16.67;50.15;98582.38;105195;1260;96568;-65
2023/05/02 06:45:20;;;;;;;7.00;4.00;;;;;;;16.77;49.44;98582.83;105027;1259;97384;-65
2023/05/02 06:47:47;;;;;;;5.50;3.40;;;;;;;16.86;49.12;98587.81;104938;1254;97827;-65
2023/05/02 06:50:15;;;;;;;6.20;3.50;;;;;;;16.95;50.14;98590.64;105010;1267;97291;-64
2023/05/02 06:52:41;;;;;;;9.30;3.70;;;;;;;17.14;49.76;98593.16;105035;1260;96558;-68
2023/05/02 06:55:08;;;;;;;8.10;3.90;;;;;;;17.26;49.05;98592.17;105096;1260;97099;-65
2023/05/02 06:57:35;;;;;;;7.20;4.30;;;;;;;17.41;49.08;98598.02;104885;1270;96682;-66
2023/05/02 07:00:08;;;;;;;11.80;6.10;;;;;;;17.65;50.24;98597.05;104955;1260;96582;-65
2023/05/02 07:02:38;;;;;;;6.20;3.80;;;;;;;17.86;49.64;98600.88;105035;1267;109978;-65
2023/05/02 07:05:05;;;;;;;9.50;3.60;;;;;;;17.89;48.87;98603.70;104968;1254;99321;-65
2023/05/02 07:07:32;;;;;;;6.90;3.50;;;;;;;17.88;49.74;98607.48;104907;1268;99226;-65
2023/05/02 07:09:59;;;;;;;5.60;3.30;;;;;;;17.89;50.39;98612.59;104883;1268;98820;-65
2023/05/02 07:12:27;;;;;;;7.40;3.40;;;;;;;17.92;50.60;98623.49;104900;1267;97930;-70
2023/05/02 07:14:54;;;;;;;7.70;3.30;;;;;;;18.01;48.31;98627.55;105112;1267;97991;-69
2023/05/02 07:17:22;;;;;;;5.60;3.30;;;;;;;18.17;49.20;98623.85;105076;1260;97902;-68
2023/05/02 07:19:50;;;;;;;7.10;3.10;;;;;;;18.40;49.38;98626.98;105017;1268;97921;-67
2023/05/02 07:22:17;;;;;;;7.60;3.60;;;;;;;18.57;47.15;98631.90;104880;1267;99244;-67
2023/05/02 07:24:45;;;;;;;7.00;3.40;;;;;;;18.77;48.36;98627.78;105006;1261;97928;-67
2023/05/02 07:27:12;;;;;;;8.10;2.90;;;;;;;19.06;48.82;98630.04;105009;1267;98120;-66
2023/05/02 07:29:41;;;;;;;7.60;2.80;;;;;;;19.32;48.91;98634.50;104888;1267;99147;-66
2023/05/02 07:32:09;;;;;;;7.40;2.80;;;;;;;19.58;48.55;98640.19;104947;1261;108309;-67
2023/05/02 07:34:36;;;;;;;4.10;2.30;;;;;;;19.80;47.44;98638.89;104888;1260;97919;-67
2023/05/02 07:37:03;;;;;;;4.00;2.00;;;;;;;20.00;44.38;98637.24;104912;1266;98099;-66
2023/05/02 07:39:32;;;;;;;4.30;2.70;;;;;;;20.18;45.65;98639.38;104853;1270;97921;-67
2023/05/02 07:42:00;;;;;;;3.60;2.50;;;;;;;20.48;44.40;98642.50;104624;1266;98761;-66
2023/05/02 07:44:27;;;;;;;6.10;2.40;;;;;;;20.68;43.53;98642.62;104700;1264;108228;-67
2023/05/02 07:46:55;;;;;;;5.80;3.80;;;;;;;20.75;42.06;98642.44;104632;1272;97993;-66
2023/05/02 07:49:22;;;;;;;5.20;2.80;;;;;;;21.02;43.16;98644.45;104919;1263;99168;-68
2023/05/02 07:51:49;;;;;;;8.00;2.30;;;;;;;21.23;43.94;98640.48;104902;1270;97908;-66
2023/05/02 07:54:21;;;;;;;7.90;2.10;;;;;;;21.32;41.44;98638.88;104840;1270;98572;-65
2023/05/02 07:56:48;;;;;;;3.50;1.70;;;;;;;21.35;41.07;98642.39;104813;1270;108496;-66
2023/05/02 07:59:15;;;;;;;5.40;1.80;;;;;;;21.45;41.08;98643.98;104808;1269;97982;-67
2023/05/02 08:01:43;;;;;;;3.40;1.60;;;;;;;21.57;40.74;98645.09;104715;1270;99224;-66
2023/05/02 08:04:11;;;;;;;2.50;1.50;;;;;;;21.84;41.65;98650.04;104897;1261;112189;-73
2023/05/02 08:06:39;;;;;;;2.80;1.20;;;;;;;22.20;41.65;98652.35;104880;1270;99411;-66
2023/05/02 08:09:09;;;;;;;2.70;1.60;;;;;;;22.37;39.14;98651.52;104813;1263;107928;-70
2023/05/02 08:11:38;;;;;;;4.00;1.60;;;;;;;22.39;38.76;98647.05;104663;1266;98134;-65
2023/05/02 08:14:06;;;;;;;2.90;1.50;;;;;;;22.35;39.14;98652.88;104933;1263;99110;-66
2023/05/02 08:16:33;;;;;;;3.70;1.70;;;;;;;22.45;38.92;98654.27;104780;1270;97930;-65
2023/05/02 08:19:01;;;;;;;3.70;1.60;;;;;;;22.49;38.59;98656.59;104796;1267;97922;-65
2023/05/02 08:21:30;;;;;;;3.00;1.40;;;;;;;22.59;39.50;98658.22;104935;1270;99232;-65
2023/05/02 08:23:58;;;;;;;3.30;1.30;;;;;;;22.71;38.14;98659.04;104610;1265;98063;-66
2023/05/02 08:26:26;;;;;;;2.40;1.50;;;;;;;22.79;38.12;98662.02;104879;1261;97930;-66
2023/05/02 08:28:54;;;;;;;2.10;1.60;;;;;;;23.16;38.12;98661.48;104449;1264;111251;-66
2023/05/02 08:31:22;;;;;;;2.60;1.50;;;;;;;23.55;37.74;98668.25;104799;1263;99625;-70
2023/05/02 08:33:49;;;;;;;5.00;1.90;;;;;;;23.81;37.92;98667.48;105078;1271;97980;-67
2023/05/02 08:36:18;;;;;;;2.70;1.80;;;;;;;24.02;36.37;98672.13;104827;1260;97941;-68
2023/05/02 08:38:46;;;;;;;2.30;1.80;;;;;;;24.16;36.96;98674.33;104688;1263;98065;-66
2023/05/02 08:41:16;;;;;;;3.50;1.90;;;;;;;24.39;36.25;98674.96;104839;1263;111489;-66
2023/05/02 08:43:45;;;;;;;2.00;1.50;;;;;;;24.41;35.14;98677.11;104708;1262;99203;-66
2023/05/02 08:46:14;;;;;;;2.90;1.50;;;;;;;24.51;35.69;98669.77;104856;1259;108471;-66
2023/05/02 08:48:43;;;;;;;3.80;1.70;;;;;;;24.67;35.92;98668.56;104654;1271;98054;-66
2023/05/02 08:51:12;;;;;;;2.30;1.60;;;;;;;24.89;35.14;98668.75;104597;1273;98872;-66
2023/05/02 08:53:40;;;;;;;2.60;1.60;;;;;;;24.97;35.41;98669.98;104833;1270;112170;-65
2023/05/02 08:56:09;;;;;;;4.40;1.50;;;;;;;24.94;34.54;98674.24;104933;1260;98193;-66
2023/05/02 08:58:37;;;;;;;3.10;1.40;;;;;;;24.78;35.23;98670.90;104934;1261;108759;-65
2023/05/02 09:01:16;;;;;;;4.40;1.70;;;;;;;24.62;33.73;98673.55;104522;1263;97969;-65
2023/05/02 09:03:45;;;;;;;5.40;1.70;;;;;;;24.53;34.62;98669.61;104953;1257;97956;-66
2023/05/02 09:06:16;;;;;;;3.20;1.80;;;;;;;24.19;34.51;98674.31;104769;1260;112205;-66
2023/05/02 09:08:47;;;;;;;3.40;1.60;;;;;;;23.77;35.42;98667.25;104575;1278;99263;-65
2023/05/02 09:11:15;;;;;;;2.80;1.70;;;;;;;23.61;35.73;98667.59;104830;1260;108564;-66
2023/05/02 09:13:47;;;;;;;3.90;1.50;;;;;;;23.71;35.03;98671.27;105045;1267;99119;-65
2023/05/02 09:16:18;;;;;;;1.90;1.60;;;;;;;23.98;37.14;98672.15;105017;1261;97968;-65
2023/05/02 09:18:47;;;;;;;2.70;1.80;;;;;;;24.27;36.02;98678.52;104924;1260;111229;-66
2023/05/02 09:21:44;;;;;;;4.50;1.80;;;;;;;24.44;35.17;98679.48;104996;1260;99260;-65
2023/05/02 09:24:19;;;;;;;1.80;1.70;;;;;;;24.74;36.20;98678.59;104781;1261;108844;-65
2023/05/02 09:26:57;;;;;;;4.40;1.90;;;;;;;24.87;37.21;98682.45;104629;1273;98025;-65
2023/05/02 09:29:27;;;;;;;4.60;2.30;;;;;;;25.10;36.05;98685.10;104773;1273;97931;-65
2023/05/02 09:31:55;;;;;;;3.10;2.10;;;;;;;25.38;36.02;98682.79;104838;1262;112691;-65
2023/05/02 09:34:23;;;;;;;2.40;2.20;;;;;;;25.35;35.45;98692.35;104996;1263;99305;-65
2023/05/02 09:36:52;;;;;;;6.60;2.60;;;;;;;25.57;34.26;98690.80;104980;1261;108635;-65
2023/05/02 09:39:28;;;;;;;4.80;2.50;;;;;;;25.74;33.66;98694.26;104974;1269;97900;-65
2023/05/02 09:41:57;;;;;;;3.10;2.00;;;;;;;25.94;35.59;98689.23;104888;1272;98073;-65
2023/05/02 09:44:26;;;;;;;3.10;2.10;;;;;;;26.08;35.29;98693.41;104619;1267;111374;-65
2023/05/02 09:46:56;;;;;;;4.40;2.30;;;;;;;25.99;35.23;98684.77;104580;1261;98031;-64
2023/05/02 09:49:45;;;;;;;3.60;2.10;;;;;;;26.15;35.63;98688.42;104740;1268;107476;-65
2023/05/02 09:52:18;;;;;;;4.20;2.20;;;;;;;26.58;34.42;98689.90;104414;1273;98095;-66
2023/05/02 09:54:46;;;;;;;2.50;2.30;;;;;;;26.80;34.47;98690.00;104827;1270;98083;-73
2023/05/02 09:57:13;;;;;;;3.50;2.20;;;;;;;27.10;33.74;98688.69;104976;1270;112596;-66
2023/05/02 09:59:41;;;;;;;3.50;3.20;;;;;;;27.20;32.27;98688.30;104973;1257;98020;-66
2023/05/02 10:02:10;;;;;;;2.90;2.40;;;;;;;27.24;32.97;98694.41;104867;1270;98386;-65
2023/05/02 10:04:38;;;;;;;4.10;2.50;;;;;;;27.31;32.92;98697.02;104948;1260;98034;-65
2023/05/02 10:07:09;;;;;;;4.30;2.30;;;;;;;27.44;34.01;98695.20;104960;1257;97986;-64
2023/05/02 10:09:42;;;;;;;2.80;2.60;;;;;;;27.30;33.85;98690.20;104795;1270;112453;-64
2023/05/02 10:12:15;;;;;;;4.40;2.10;;;;;;;27.11;34.00;98695.58;104592;1263;98666;-64
2023/05/02 10:14:54;;;;;;;2.60;2.40;;;;;;;26.87;34.00;98694.07;104567;1263;107652;-64
2023/05/02 10:17:28;;;;;;;3.70;2.10;;;;;;;26.75;34.48;98699.70;104696;1272;98117;-64
2023/05/02 10:20:07;;;;;;;3.80;2.60;;;;;;;27.10;33.42;98697.84;104597;1258;98107;-64
2023/05/02 10:22:35;;;;;;;5.50;2.20;;;;;;;27.40;34.64;98701.61;104773;1262;111366;-69
2023/05/02 10:25:03;;;;;;;3.40;2.60;;;;;;;27.54;33.95;98700.09;104810;1260;98104;-65
2023/05/02 10:27:31;;;;;;;2.80;2.30;;;;;;;27.22;34.18;98702.64;104932;1269;108256;-64
2023/05/02 10:30:01;;;;;;;2.40;2.20;;;;;;;26.87;35.68;98707.80;105011;1260;98029;-65
2023/05/02 10:32:28;;;;;;;4.80;2.70;;;;;;;26.74;34.63;98712.97;104973;1261;98030;-64
2023/05/02 10:34:57;;;;;;;3.80;2.90;;;;;;;26.66;34.34;98714.13;104499;1266;111239;-64
2023/05/02 10:37:27;;;;;;;3.80;2.70;;;;;;;26.57;34.12;98712.64;105010;1257;99116;-65
2023/05/02 10:39:54;;;;;;;2.60;2.40;;;;;;;26.49;35.00;98714.03;104984;1267;108886;-65
2023/05/02 10:42:22;;;;;;;2.60;2.40;;;;;;;26.33;35.78;98711.73;104858;1270;98023;-64
2023/05/02 10:44:49;;;;;;;3.60;3.00;;;;;;;25.99;36.18;98717.25;104659;1264;98008;-65
2023/05/02 10:47:20;;;;;;;3.80;3.20;;;;;;;25.78;36.04;98721.40;104882;1270;98809;-64
2023/05/02 10:50:02;;;;;;;4.10;3.00;;;;;;;25.72;36.18;98717.13;104733;1264;98198;-63
2023/05/02 10:52:29;;;;;;;4.20;3.20;;;;;;;25.71;36.14;98709.84;104919;1261;108718;-63
2023/05/02 10:55:16;;;;;;;7.00;3.10;;;;;;;25.58;36.22;98709.55;104828;1267;97972;-64
2023/05/02 10:57:58;;;;;;;3.00;2.70;;;;;;;25.53;38.20;98713.91;104908;1261;97934;-63
2023/05/02 11:00:29;;;;;;;6.10;3.30;;;;;;;25.30;38.36;98714.52;104702;1264;112299;-64
2023/05/02 11:02:56;;;;;;;4.40;3.50;;;;;;;25.07;38.52;98714.27;104620;1273;98139;-64
2023/05/02 11:05:25;;;;;;;4.60;3.30;;;;;;;25.00;39.25;98718.02;104636;1266;108027;-64
2023/05/02 11:08:14;;;;;;;3.60;3.20;;;;;;;24.80;39.30;98718.52;104829;1262;97944;-64
2023/05/02 11:10:44;;;;;;;3.70;3.20;;;;;;;24.57;39.55;98721.13;104665;1268;99305;-63
2023/05/02 11:13:12;;;;;;;5.40;3.20;;;;;;;24.54;40.73;98719.55;104813;1262;111742;-65
2023/05/02 11:15:39;;;;;;;4.10;3.70;;;;;;;24.45;40.93;98722.70;104843;1258;99286;-66
2023/05/02 11:18:07;;;;;;;3.40;3.10;;;;;;;24.27;40.62;98722.21;104704;1264;98042;-72
2023/05/02 11:20:36;;;;;;;3.70;3.40;;;;;;;24.25;40.79;98720.45;104547;1256;99266;-65
2023/05/02 11:23:15;;;;;;;3.90;3.20;;;;;;;24.27;40.09;98723.98;104507;1263;98219;-65
2023/05/02 11:25:52;;;;;;;5.20;3.50;;;;;;;24.35;40.28;98722.02;104933;1262;111808;-65
2023/05/02 11:28:47;;;;;;;3.40;3.00;;;;;;;24.29;40.55;98725.73;104654;1263;98178;-65
2023/05/02 11:31:26;;;;;;;4.20;3.50;;;;;;;24.33;41.15;98723.07;104955;1261;108769;-66
2023/05/02 11:34:01;;;;;;;6.10;3.90;;;;;;;24.30;40.56;98728.20;104915;1261;98084;-67